Mckinley Sea — WDE5024 — position and weather

sailwx.info

Track history (hours):
 
Tides and Currents Weather Stations Pressure Air Temp Water Temp Dewpoint Dewpoint Depression Visibility Wind Speed Wind Dir Waves Ship Positions

Mckinley Sea

Owner: Kirby Offshore Marine, LLC, Staten Island, NY. More information available from US FCC via Universal Licensing System and Coast Guard Vessel Documentation Center.

Last reported at 2016-May-25 20:32 UTC. Time now 2016-May-25 22:42 UTC.
Position N 40°46' W 074°00'.

Length 41 m; draft 7 m.

Type: Tanker. MMSI: 367360980.

Date/timePositionNaut miles runAvg speedWind from/ knotsBaromVisibWave heightAir tempDewpointWater temp
2016-May-25 20:32N 40°46' W 074°00'10 9.2
2016-May-25 19:29N 40°39' W 074°08'1 0.2
2016-May-25 12:19N 40°38' W 074°10'0 0.0
2016-May-25 11:32N 40°38' W 074°10'0 0.0
2016-May-25 07:27N 40°38' W 074°10'0 0.0
2016-May-25 06:31N 40°38' W 074°10'0 0.0
2016-May-25 05:33N 40°38' W 074°10'0 0.0
2016-May-25 01:33N 40°39' W 074°10'0 0.0
2016-May-25 00:33N 40°39' W 074°10'6 6.1
2016-May-24 23:33N 40°36' W 074°02'1 0.9
2016-May-24 22:32N 40°36' W 074°02'0 0.0
2016-May-24 21:28N 40°35' W 074°02'0 0.0
2016-May-24 20:33N 40°36' W 074°02'1 0.5
2016-May-24 19:33N 40°35' W 074°02'6 5.3
2016-May-24 18:30N 40°30' W 073°57'37 7.0
2016-May-24 13:13N 39°54' W 073°57'5 7.6
2016-May-24 12:32N 39°48' W 073°58'7 7.5
2016-May-24 11:33N 39°41' W 074°01'7 7.3
2016-May-24 10:33N 39°35' W 074°05'7 7.5
2016-May-24 09:33N 39°28' W 074°10'57 6.0
2016-May-24 00:06N 38°49' W 075°02'3 5.8
2016-May-23 23:32N 38°52' W 075°04'6 6.3
2016-May-23 22:33N 38°57' W 075°07'7 7.4
2016-May-23 21:33N 39°04' W 075°11'9 8.7
2016-May-23 20:33N 39°11' W 075°17'9 9.2
2016-May-23 19:33N 39°19' W 075°24'8 8.4
2016-May-23 18:33N 39°25' W 075°31'6 6.5
2016-May-23 17:33N 39°31' W 075°33'6 5.6
2016-May-23 16:33N 39°37' W 075°35'6 5.6
2016-May-23 15:34N 39°42' W 075°31'6 6.4
2016-May-23 14:34N 39°47' W 075°27'8 7.8
2016-May-23 13:33N 39°51' W 075°18'2 1.8
2016-May-23 12:34N 39°51' W 075°16'0 0.2
2016-May-23 11:33N 39°51' W 075°16'0 0.0
2016-May-23 10:33N 39°51' W 075°16'0 0.0
2016-May-23 09:33N 39°51' W 075°16'0 0.0
2016-May-23 08:34N 39°51' W 075°16'0 0.0
2016-May-23 07:33N 39°51' W 075°16'0 0.0
2016-May-23 06:33N 39°51' W 075°16'0 0.0
2016-May-23 05:33N 39°51' W 075°16'0 0.0
2016-May-23 04:34N 39°51' W 075°16'0 0.0
2016-May-23 03:33N 39°51' W 075°16'0 0.0
2016-May-23 02:33N 39°51' W 075°16'0 0.0
2016-May-23 01:34N 39°51' W 075°16'0 0.0
2016-May-23 00:34N 39°51' W 075°16'0 0.0
2016-May-22 23:33N 39°51' W 075°16'0 0.0
2016-May-22 22:34N 39°51' W 075°16'0 0.0
2016-May-22 21:33N 39°51' W 075°16'0 0.0
2016-May-22 20:33N 39°51' W 075°16'0 0.0
2016-May-22 19:34N 39°51' W 075°16'0 0.0
2016-May-22 18:33N 39°51' W 075°16'0 0.0
2016-May-22 17:34N 39°51' W 075°16'0 0.0
2016-May-22 16:34N 39°51' W 075°16'0 0.0
2016-May-22 15:33N 39°51' W 075°16'0 0.0
2016-May-22 14:33N 39°51' W 075°16'0 0.0
2016-May-22 13:33N 39°51' W 075°16'0 0.0
2016-May-22 12:33N 39°51' W 075°16'0 0.0
2016-May-22 11:34N 39°51' W 075°16'0 0.0
2016-May-22 10:33N 39°51' W 075°16'0 0.0
2016-May-22 09:34N 39°51' W 075°16'0 0.0
2016-May-22 08:34N 39°51' W 075°16'0 0.0
2016-May-22 07:33N 39°51' W 075°16'0 0.0
2016-May-22 06:34N 39°51' W 075°16'0 0.0
2016-May-22 05:33N 39°51' W 075°16'0 0.0
2016-May-22 04:34N 39°51' W 075°16'0 0.0
2016-May-22 03:34N 39°51' W 075°16'0 0.0
2016-May-22 02:33N 39°51' W 075°16'0 0.0
2016-May-22 01:34N 39°51' W 075°16'0 0.0
2016-May-22 00:33N 39°51' W 075°16'0 0.0
2016-May-21 23:34N 39°51' W 075°16'2 1.8
2016-May-21 22:34N 39°52' W 075°14'2 1.8
2016-May-21 21:34N 39°51' W 075°16'3 2.8
2016-May-21 20:33N 39°52' W 075°12'3 2.8
2016-May-21 19:33N 39°51' W 075°16'0 0.0
2016-May-21 18:34N 39°51' W 075°16'0 0.2
2016-May-21 17:34N 39°51' W 075°16'1 0.9
2016-May-21 16:33N 39°51' W 075°15'1 1.3
2016-May-21 15:33N 39°52' W 075°13'0 0.0
2016-May-21 14:33N 39°52' W 075°13'0 0.1
2016-May-21 13:33N 39°52' W 075°14'0 0.0
2016-May-21 12:33N 39°52' W 075°14'0 0.0
2016-May-21 11:33N 39°52' W 075°13'0 0.0
2016-May-21 10:33N 39°52' W 075°14'0 0.0
2016-May-21 09:33N 39°52' W 075°14'0 0.0
2016-May-21 08:33N 39°52' W 075°13'0 0.0
2016-May-21 07:33N 39°52' W 075°13'0 0.1
2016-May-21 06:33N 39°52' W 075°13'0 0.1
2016-May-21 05:33N 39°52' W 075°13'0 0.0
2016-May-21 04:33N 39°52' W 075°13'0 0.0
2016-May-21 03:33N 39°52' W 075°13'0 0.0
2016-May-21 02:33N 39°52' W 075°13'0 0.0
2016-May-21 01:32N 39°52' W 075°13'0 0.1
2016-May-21 00:32N 39°52' W 075°13'0 0.0
2016-May-20 23:33N 39°52' W 075°14'0 0.1
2016-May-20 22:33N 39°52' W 075°14'0 0.0
2016-May-20 21:30N 39°52' W 075°14'0 0.0
2016-May-20 20:33N 39°52' W 075°14'0 0.0
2016-May-20 19:32N 39°52' W 075°13'0 0.1
2016-May-20 18:33N 39°52' W 075°13'0 0.1
2016-May-20 17:32N 39°52' W 075°13'0 0.1
2016-May-20 16:33N 39°52' W 075°13'0 0.1
2016-May-20 15:32N 39°52' W 075°13'0 0.0
2016-May-20 14:32N 39°52' W 075°13'0 0.0
2016-May-20 13:32N 39°52' W 075°13'0 0.1
2016-May-20 12:32N 39°52' W 075°13'0 0.0
2016-May-20 11:32N 39°52' W 075°14'0 0.0
2016-May-20 10:32N 39°52' W 075°13'0 0.0
2016-May-20 09:32N 39°52' W 075°13'0 0.0
2016-May-20 08:32N 39°52' W 075°13'0 0.0
2016-May-20 07:33N 39°52' W 075°13'0 0.1
2016-May-20 06:32N 39°52' W 075°13'0 0.1
2016-May-20 05:33N 39°52' W 075°13'0 0.0
2016-May-20 04:32N 39°52' W 075°13'0 0.0
2016-May-20 03:32N 39°52' W 075°13'0 0.0
2016-May-20 02:31N 39°52' W 075°13'0 0.0
2016-May-20 01:33N 39°52' W 075°13'0 0.1
2016-May-20 00:33N 39°52' W 075°13'7 6.6
2016-May-19 23:33N 39°50' W 075°22'8 8.4
2016-May-19 22:33N 39°44' W 075°30'8 7.7
2016-May-19 21:33N 39°37' W 075°35'7 7.1
2016-May-19 20:33N 39°30' W 075°33'7 6.5
2016-May-19 19:33N 39°24' W 075°30'7 7.1
2016-May-19 18:33N 39°19' W 075°24'8 7.3
2016-May-19 17:30N 39°13' W 075°18'8 8.0
2016-May-19 16:32N 39°07' W 075°12'24 5.7
2016-May-19 12:16N 38°57' W 074°44'7 9.9
2016-May-19 11:33N 39°02' W 074°37'10 9.7
2016-May-19 10:31N 39°10' W 074°28'9 9.8
2016-May-19 09:33N 39°17' W 074°20'10 9.9
2016-May-19 08:33N 39°25' W 074°12'10 9.7
2016-May-19 07:33N 39°33' W 074°07'10 9.6
2016-May-19 06:33N 39°42' W 074°00'9 9.4
2016-May-19 05:33N 39°51' W 073°58'10 9.6
2016-May-19 04:33N 40°00' W 073°56'36 8.9
2016-May-19 00:32N 40°36' W 074°03'6 6.4
2016-May-18 23:33N 40°38' W 074°10'0 0.0
2016-May-18 18:33N 40°38' W 074°10'0 0.0
2016-May-18 15:33N 40°39' W 074°10'0 0.0
2016-May-18 14:33N 40°39' W 074°10'0 0.0
2016-May-18 13:33N 40°39' W 074°10'0 0.0
2016-May-18 12:33N 40°39' W 074°10'0 0.0
2016-May-18 11:33N 40°39' W 074°10'0 0.0
2016-May-18 10:33N 40°39' W 074°10'0 0.0
2016-May-18 09:33N 40°39' W 074°10'0 0.0
2016-May-18 08:33N 40°39' W 074°10'0 0.0
2016-May-18 07:33N 40°39' W 074°10'0 0.0
2016-May-18 06:32N 40°39' W 074°10'0 0.0
2016-May-18 05:33N 40°39' W 074°10'0 0.0
2016-May-18 04:33N 40°39' W 074°10'0 0.0
2016-May-18 03:33N 40°39' W 074°10'0 0.0
2016-May-18 02:30N 40°39' W 074°10'0 0.0
2016-May-18 01:33N 40°39' W 074°10'0 0.0
2016-May-18 00:33N 40°39' W 074°10'0 0.0
2016-May-17 23:33N 40°39' W 074°10'0 0.0
2016-May-17 22:33N 40°39' W 074°10'0 0.0
2016-May-17 21:33N 40°39' W 074°10'0 0.0
2016-May-17 20:33N 40°39' W 074°10'2 2.5
2016-May-17 19:33N 40°39' W 074°07'0 0.0
2016-May-17 18:33N 40°39' W 074°07'0 0.0
2016-May-17 17:33N 40°39' W 074°07'0 0.0
2016-May-17 16:33N 40°39' W 074°07'3 0.8
2016-May-17 13:26N 40°38' W 074°10'0 0.0
2016-May-17 12:33N 40°38' W 074°10'0 0.0
2016-May-17 11:33N 40°38' W 074°10'  
Track history (hours):
 
Tides and Currents Weather Stations Pressure Air Temp Water Temp Dewpoint Dewpoint Depression Visibility Wind Speed Wind Dir Waves Ship Positions

Mckinley Sea

Owner: Kirby Offshore Marine, LLC, Staten Island, NY. More information available from US FCC via Universal Licensing System and Coast Guard Vessel Documentation Center.

Last reported at 2016-May-25 20:32 UTC. Time now 2016-May-25 22:42 UTC.
Position N 40°46' W 074°00'.

Length 41 m; draft 7 m.

Type: Tanker. MMSI: 367360980.

Date/timePositionNaut miles runAvg speedWind from/ knotsBaromVisibWave heightAir tempDewpointWater temp
2016-May-25 20:32N 40°46' W 074°00'10 9.2
2016-May-25 19:29N 40°39' W 074°08'1 0.2
2016-May-25 12:19N 40°38' W 074°10'0 0.0
2016-May-25 11:32N 40°38' W 074°10'0 0.0
2016-May-25 07:27N 40°38' W 074°10'0 0.0
2016-May-25 06:31N 40°38' W 074°10'0 0.0
2016-May-25 05:33N 40°38' W 074°10'0 0.0
2016-May-25 01:33N 40°39' W 074°10'0 0.0
2016-May-25 00:33N 40°39' W 074°10'6 6.1
2016-May-24 23:33N 40°36' W 074°02'1 0.9
2016-May-24 22:32N 40°36' W 074°02'0 0.0
2016-May-24 21:28N 40°35' W 074°02'0 0.0
2016-May-24 20:33N 40°36' W 074°02'1 0.5
2016-May-24 19:33N 40°35' W 074°02'6 5.3
2016-May-24 18:30N 40°30' W 073°57'37 7.0
2016-May-24 13:13N 39°54' W 073°57'5 7.6
2016-May-24 12:32N 39°48' W 073°58'7 7.5
2016-May-24 11:33N 39°41' W 074°01'7 7.3
2016-May-24 10:33N 39°35' W 074°05'7 7.5
2016-May-24 09:33N 39°28' W 074°10'57 6.0
2016-May-24 00:06N 38°49' W 075°02'3 5.8
2016-May-23 23:32N 38°52' W 075°04'6 6.3
2016-May-23 22:33N 38°57' W 075°07'7 7.4
2016-May-23 21:33N 39°04' W 075°11'9 8.7
2016-May-23 20:33N 39°11' W 075°17'9 9.2
2016-May-23 19:33N 39°19' W 075°24'8 8.4
2016-May-23 18:33N 39°25' W 075°31'6 6.5
2016-May-23 17:33N 39°31' W 075°33'6 5.6
2016-May-23 16:33N 39°37' W 075°35'6 5.6
2016-May-23 15:34N 39°42' W 075°31'6 6.4
2016-May-23 14:34N 39°47' W 075°27'8 7.8
2016-May-23 13:33N 39°51' W 075°18'2 1.8
2016-May-23 12:34N 39°51' W 075°16'0 0.2
2016-May-23 11:33N 39°51' W 075°16'0 0.0
2016-May-23 10:33N 39°51' W 075°16'0 0.0
2016-May-23 09:33N 39°51' W 075°16'0 0.0
2016-May-23 08:34N 39°51' W 075°16'0 0.0
2016-May-23 07:33N 39°51' W 075°16'0 0.0
2016-May-23 06:33N 39°51' W 075°16'0 0.0
2016-May-23 05:33N 39°51' W 075°16'0 0.0
2016-May-23 04:34N 39°51' W 075°16'0 0.0
2016-May-23 03:33N 39°51' W 075°16'0 0.0
2016-May-23 02:33N 39°51' W 075°16'0 0.0
2016-May-23 01:34N 39°51' W 075°16'0 0.0
2016-May-23 00:34N 39°51' W 075°16'0 0.0
2016-May-22 23:33N 39°51' W 075°16'0 0.0
2016-May-22 22:34N 39°51' W 075°16'0 0.0
2016-May-22 21:33N 39°51' W 075°16'0 0.0
2016-May-22 20:33N 39°51' W 075°16'0 0.0
2016-May-22 19:34N 39°51' W 075°16'0 0.0
2016-May-22 18:33N 39°51' W 075°16'0 0.0
2016-May-22 17:34N 39°51' W 075°16'0 0.0
2016-May-22 16:34N 39°51' W 075°16'0 0.0
2016-May-22 15:33N 39°51' W 075°16'0 0.0
2016-May-22 14:33N 39°51' W 075°16'0 0.0
2016-May-22 13:33N 39°51' W 075°16'0 0.0
2016-May-22 12:33N 39°51' W 075°16'0 0.0
2016-May-22 11:34N 39°51' W 075°16'0 0.0
2016-May-22 10:33N 39°51' W 075°16'0 0.0
2016-May-22 09:34N 39°51' W 075°16'0 0.0
2016-May-22 08:34N 39°51' W 075°16'0 0.0
2016-May-22 07:33N 39°51' W 075°16'0 0.0
2016-May-22 06:34N 39°51' W 075°16'0 0.0
2016-May-22 05:33N 39°51' W 075°16'0 0.0
2016-May-22 04:34N 39°51' W 075°16'0 0.0
2016-May-22 03:34N 39°51' W 075°16'0 0.0
2016-May-22 02:33N 39°51' W 075°16'0 0.0
2016-May-22 01:34N 39°51' W 075°16'0 0.0
2016-May-22 00:33N 39°51' W 075°16'0 0.0
2016-May-21 23:34N 39°51' W 075°16'2 1.8
2016-May-21 22:34N 39°52' W 075°14'2 1.8
2016-May-21 21:34N 39°51' W 075°16'3 2.8
2016-May-21 20:33N 39°52' W 075°12'3 2.8
2016-May-21 19:33N 39°51' W 075°16'0 0.0
2016-May-21 18:34N 39°51' W 075°16'0 0.2
2016-May-21 17:34N 39°51' W 075°16'1 0.9
2016-May-21 16:33N 39°51' W 075°15'1 1.3
2016-May-21 15:33N 39°52' W 075°13'0 0.0
2016-May-21 14:33N 39°52' W 075°13'0 0.1
2016-May-21 13:33N 39°52' W 075°14'0 0.0
2016-May-21 12:33N 39°52' W 075°14'0 0.0
2016-May-21 11:33N 39°52' W 075°13'0 0.0
2016-May-21 10:33N 39°52' W 075°14'0 0.0
2016-May-21 09:33N 39°52' W 075°14'0 0.0
2016-May-21 08:33N 39°52' W 075°13'0 0.0
2016-May-21 07:33N 39°52' W 075°13'0 0.1
2016-May-21 06:33N 39°52' W 075°13'0 0.1
2016-May-21 05:33N 39°52' W 075°13'0 0.0
2016-May-21 04:33N 39°52' W 075°13'0 0.0
2016-May-21 03:33N 39°52' W 075°13'0 0.0
2016-May-21 02:33N 39°52' W 075°13'0 0.0
2016-May-21 01:32N 39°52' W 075°13'0 0.1
2016-May-21 00:32N 39°52' W 075°13'0 0.0
2016-May-20 23:33N 39°52' W 075°14'0 0.1
2016-May-20 22:33N 39°52' W 075°14'0 0.0
2016-May-20 21:30N 39°52' W 075°14'0 0.0
2016-May-20 20:33N 39°52' W 075°14'0 0.0
2016-May-20 19:32N 39°52' W 075°13'0 0.1
2016-May-20 18:33N 39°52' W 075°13'0 0.1
2016-May-20 17:32N 39°52' W 075°13'0 0.1
2016-May-20 16:33N 39°52' W 075°13'0 0.1
2016-May-20 15:32N 39°52' W 075°13'0 0.0
2016-May-20 14:32N 39°52' W 075°13'0 0.0
2016-May-20 13:32N 39°52' W 075°13'0 0.1
2016-May-20 12:32N 39°52' W 075°13'0 0.0
2016-May-20 11:32N 39°52' W 075°14'0 0.0
2016-May-20 10:32N 39°52' W 075°13'0 0.0
2016-May-20 09:32N 39°52' W 075°13'0 0.0
2016-May-20 08:32N 39°52' W 075°13'0 0.0
2016-May-20 07:33N 39°52' W 075°13'0 0.1
2016-May-20 06:32N 39°52' W 075°13'0 0.1
2016-May-20 05:33N 39°52' W 075°13'0 0.0
2016-May-20 04:32N 39°52' W 075°13'0 0.0
2016-May-20 03:32N 39°52' W 075°13'0 0.0
2016-May-20 02:31N 39°52' W 075°13'0 0.0
2016-May-20 01:33N 39°52' W 075°13'0 0.1
2016-May-20 00:33N 39°52' W 075°13'7 6.6
2016-May-19 23:33N 39°50' W 075°22'8 8.4
2016-May-19 22:33N 39°44' W 075°30'8 7.7
2016-May-19 21:33N 39°37' W 075°35'7 7.1
2016-May-19 20:33N 39°30' W 075°33'7 6.5
2016-May-19 19:33N 39°24' W 075°30'7 7.1
2016-May-19 18:33N 39°19' W 075°24'8 7.3
2016-May-19 17:30N 39°13' W 075°18'8 8.0
2016-May-19 16:32N 39°07' W 075°12'24 5.7
2016-May-19 12:16N 38°57' W 074°44'7 9.9
2016-May-19 11:33N 39°02' W 074°37'10 9.7
2016-May-19 10:31N 39°10' W 074°28'9 9.8
2016-May-19 09:33N 39°17' W 074°20'10 9.9
2016-May-19 08:33N 39°25' W 074°12'10 9.7
2016-May-19 07:33N 39°33' W 074°07'10 9.6
2016-May-19 06:33N 39°42' W 074°00'9 9.4
2016-May-19 05:33N 39°51' W 073°58'10 9.6
2016-May-19 04:33N 40°00' W 073°56'36 8.9
2016-May-19 00:32N 40°36' W 074°03'6 6.4
2016-May-18 23:33N 40°38' W 074°10'0 0.0
2016-May-18 18:33N 40°38' W 074°10'0 0.0
2016-May-18 15:33N 40°39' W 074°10'0 0.0
2016-May-18 14:33N 40°39' W 074°10'0 0.0
2016-May-18 13:33N 40°39' W 074°10'0 0.0
2016-May-18 12:33N 40°39' W 074°10'0 0.0
2016-May-18 11:33N 40°39' W 074°10'0 0.0
2016-May-18 10:33N 40°39' W 074°10'0 0.0
2016-May-18 09:33N 40°39' W 074°10'0 0.0
2016-May-18 08:33N 40°39' W 074°10'0 0.0
2016-May-18 07:33N 40°39' W 074°10'0 0.0
2016-May-18 06:32N 40°39' W 074°10'0 0.0
2016-May-18 05:33N 40°39' W 074°10'0 0.0
2016-May-18 04:33N 40°39' W 074°10'0 0.0
2016-May-18 03:33N 40°39' W 074°10'0 0.0
2016-May-18 02:30N 40°39' W 074°10'0 0.0
2016-May-18 01:33N 40°39' W 074°10'0 0.0
2016-May-18 00:33N 40°39' W 074°10'0 0.0
2016-May-17 23:33N 40°39' W 074°10'0 0.0
2016-May-17 22:33N 40°39' W 074°10'0 0.0
2016-May-17 21:33N 40°39' W 074°10'0 0.0
2016-May-17 20:33N 40°39' W 074°10'2 2.5
2016-May-17 19:33N 40°39' W 074°07'0 0.0
2016-May-17 18:33N 40°39' W 074°07'0 0.0
2016-May-17 17:33N 40°39' W 074°07'0 0.0
2016-May-17 16:33N 40°39' W 074°07'3 0.8
2016-May-17 13:26N 40°38' W 074°10'0 0.0
2016-May-17 12:33N 40°38' W 074°10'0 0.0
2016-May-17 11:33N 40°38' W 074°10'  

Dump ship's entire track history